Time;durP1;ratioP1;P1;durP2;ratioP2;P2;SDS_P1;SDS_P2;PMS_P1;PMS_P2;Temp;Humidity;BMP_temperature;BMP_pressure;BME280_temperature;BME280_humidity;BME280_pressure;Samples;Min_cycle;Max_cycle;Signal;HPM_P1;HPM_P2
2021/07/15 00:02:59;;;;;;;0.40;0.40;;;23.70;99.90;;;;;;20922379;23;20606;-67
2021/07/15 00:13:04;;;;;;;1.30;0.35;;;23.80;99.90;;;;;;20910005;28;20556;-66
2021/07/15 00:23:10;;;;;;;0.20;0.00;;;23.80;99.90;;;;;;20911328;28;20223;-67
2021/07/15 00:33:14;;;;;;;0.30;0.28;;;23.60;99.90;;;;;;20909998;28;20221;-67
2021/07/15 00:43:19;;;;;;;4.88;0.63;;;23.60;99.90;;;;;;20909176;28;20608;-67
2021/07/15 00:53:24;;;;;;;0.20;0.20;;;23.40;99.90;;;;;;20907586;28;20232;-66
2021/07/15 01:03:29;;;;;;;0.20;0.20;;;23.40;99.90;;;;;;20908028;28;20232;-67
2021/07/15 01:13:44;;;;;;;0.43;0.20;;;23.40;99.90;;;;;;20921293;28;20225;-66
2021/07/15 01:24:17;;;;;;;0.30;0.20;;;23.30;99.90;;;;;;20911680;28;20609;-67
2021/07/15 01:34:23;;;;;;;1.90;0.40;;;23.30;99.90;;;;;;20904783;28;20236;-67
2021/07/15 01:44:30;;;;;;;1.90;0.43;;;23.20;99.90;;;;;;20903921;28;20353;-67
2021/07/15 01:54:35;;;;;;;0.93;0.30;;;23.10;99.90;;;;;;20902604;28;20552;-66
2021/07/15 02:04:40;;;;;;;0.63;0.40;;;23.00;99.90;;;;;;20902224;28;20234;-67
2021/07/15 02:14:47;;;;;;;7.63;0.50;;;22.80;99.90;;;;;;20901636;28;20534;-67
2021/07/15 02:24:51;;;;;;;1.73;0.40;;;22.80;99.90;;;;;;20900743;28;20194;-66
2021/07/15 02:35:01;;;;;;;1.07;0.67;;;22.70;99.90;;;;;;20900355;28;20281;-67
2021/07/15 02:45:07;;;;;;;0.83;0.60;;;22.60;99.90;;;;;;20900089;28;20678;-68
2021/07/15 02:55:13;;;;;;;0.90;0.50;;;22.40;99.90;;;;;;20900146;28;20202;-67
2021/07/15 03:05:22;;;;;;;2.10;1.17;;;22.40;99.90;;;;;;20900111;28;20237;-67
2021/07/15 03:15:28;;;;;;;0.33;0.33;;;22.50;99.90;;;;;;20897753;28;20190;-67
2021/07/15 03:25:34;;;;;;;1.53;0.73;;;22.70;99.90;;;;;;20897987;28;20694;-67
2021/07/15 03:35:41;;;;;;;2.83;0.47;;;22.90;99.90;;;;;;20870423;28;20194;-68
2021/07/15 03:45:49;;;;;;;3.07;0.73;;;22.70;99.90;;;;;;20868336;28;20218;-67
2021/07/15 03:55:56;;;;;;;0.43;0.40;;;22.50;99.90;;;;;;20859650;28;20243;-68
2021/07/15 04:06:02;;;;;;;0.60;0.60;;;22.30;99.90;;;;;;20868975;28;20614;-67
2021/07/15 04:16:19;;;;;;;0.60;0.37;;;21.90;99.90;;;;;;20867536;28;20202;-67
2021/07/15 04:26:24;;;;;;;0.40;0.40;;;21.60;99.90;;;;;;20866912;28;20229;-67
2021/07/15 04:36:31;;;;;;;1.07;0.63;;;21.20;99.90;;;;;;20868110;28;20229;-66
2021/07/15 04:46:35;;;;;;;0.83;0.33;;;21.10;99.90;;;;;;20862103;28;20379;-66
2021/07/15 04:56:41;;;;;;;1.00;0.43;;;21.30;99.90;;;;;;20858365;28;20210;-66
2021/07/15 05:06:45;;;;;;;0.87;0.50;;;21.40;99.90;;;;;;20864213;28;20238;-68
2021/07/15 05:16:50;;;;;;;2.50;0.97;;;21.50;99.90;;;;;;20839930;28;20671;-67
2021/07/15 05:26:55;;;;;;;1.50;1.37;;;21.60;99.90;;;;;;20842931;28;20267;-66
2021/07/15 05:37:01;;;;;;;3.50;1.33;;;21.70;99.90;;;;;;20907134;28;20281;-68
2021/07/15 05:47:07;;;;;;;3.30;0.40;;;21.90;99.90;;;;;;20912155;28;20625;-67
2021/07/15 05:57:18;;;;;;;0.67;0.40;;;22.20;99.90;;;;;;20901981;28;20197;-66
2021/07/15 06:07:22;;;;;;;2.17;1.00;;;22.40;99.90;;;;;;20900919;28;20756;-67
2021/07/15 06:17:27;;;;;;;0.77;0.57;;;22.40;99.90;;;;;;20898693;28;20359;-64
2021/07/15 06:27:31;;;;;;;1.33;0.63;;;22.70;99.90;;;;;;20899685;28;20623;-68
2021/07/15 06:37:41;;;;;;;2.03;1.70;;;23.00;99.90;;;;;;20869450;28;20189;-67
2021/07/15 06:47:46;;;;;;;0.57;0.40;;;23.10;99.90;;;;;;20852780;28;20613;-67
2021/07/15 06:57:50;;;;;;;0.50;0.50;;;23.10;99.90;;;;;;20830447;28;20190;-67
2021/07/15 07:07:54;;;;;;;0.32;0.30;;;23.50;99.90;;;;;;20837605;28;20316;-63
2021/07/15 07:17:59;;;;;;;0.75;0.75;;;23.70;99.90;;;;;;20908302;28;20650;-64
2021/07/15 07:28:03;;;;;;;3.63;1.10;;;23.90;99.90;;;;;;20835585;28;20454;-70
2021/07/15 07:38:08;;;;;;;0.93;0.38;;;24.80;99.90;;;;;;20895985;28;20713;-70
2021/07/15 07:48:11;;;;;;;8.30;0.63;;;24.60;99.90;;;;;;20910122;28;20225;-70
2021/07/15 07:58:17;;;;;;;0.73;0.63;;;24.30;99.90;;;;;;20910391;28;20232;-68
2021/07/15 08:08:21;;;;;;;0.30;0.20;;;24.20;99.90;;;;;;20925139;28;20312;-69
2021/07/15 08:18:26;;;;;;;0.70;0.60;;;24.30;99.90;;;;;;20908757;28;20261;-68
2021/07/15 08:28:30;;;;;;;14.73;0.70;;;24.20;99.90;;;;;;20907178;28;20271;-69
2021/07/15 08:38:40;;;;;;;2.28;1.13;;;24.20;99.90;;;;;;20906745;28;20281;-69
2021/07/15 08:48:46;;;;;;;4.50;0.50;;;24.30;99.90;;;;;;20906026;28;20225;-69
2021/07/15 08:58:51;;;;;;;0.65;0.47;;;24.50;99.90;;;;;;20905504;28;20198;-69
2021/07/15 09:08:55;;;;;;;0.20;0.10;;;24.60;99.90;;;;;;20905015;28;20233;-69
2021/07/15 09:19:02;;;;;;;0.38;0.10;;;24.40;99.90;;;;;;20903773;28;20207;-68
2021/07/15 09:29:16;;;;;;;0.50;0.50;;;24.80;99.90;;;;;;20903341;28;20233;-71
2021/07/15 09:39:24;;;;;;;0.75;0.57;;;25.10;99.90;;;;;;20913987;28;20189;-66
2021/07/15 09:49:31;;;;;;;0.30;0.30;;;25.30;99.90;;;;;;20903342;28;20732;-75
2021/07/15 09:59:51;;;;;;;0.38;0.38;;;25.20;99.90;;;;;;20913313;28;20220;-68
2021/07/15 10:10:16;;;;;;;0.38;0.30;;;25.60;99.90;;;;;;20902879;28;20311;-68
2021/07/15 10:20:22;;;;;;;0.30;0.20;;;25.70;99.90;;;;;;20899981;28;20224;-68
2021/07/15 10:30:28;;;;;;;0.20;0.17;;;25.70;99.90;;;;;;20899848;28;20274;-70
2021/07/15 10:40:33;;;;;;;0.68;0.63;;;26.10;99.90;;;;;;20898145;28;20197;-67
2021/07/15 10:50:37;;;;;;;1.50;0.80;;;26.40;99.90;;;;;;20897191;28;20580;-69
2021/07/15 11:00:51;;;;;;;0.63;0.55;;;26.50;99.90;;;;;;20896648;28;20249;-69
2021/07/15 11:10:59;;;;;;;1.15;0.82;;;27.00;99.90;;;;;;20895961;28;20224;-70
2021/07/15 11:21:36;;;;;;;0.52;0.52;;;27.00;99.90;;;;;;20895641;28;20282;-69
2021/07/15 11:31:44;;;;;;;0.32;0.22;;;27.10;99.90;;;;;;20892184;28;20253;-67
2021/07/15 11:41:50;;;;;;;0.32;0.30;;;27.80;99.90;;;;;;20892973;28;20625;-67
2021/07/15 11:52:01;;;;;;;7.85;1.02;;;28.40;99.90;;;;;;20895156;28;20316;-67
2021/07/15 12:02:09;;;;;;;0.82;0.75;;;29.10;99.90;;;;;;20903249;28;20217;-69
2021/07/15 12:12:15;;;;;;;0.40;0.40;;;29.20;99.90;;;;;;20908813;28;20697;-66
2021/07/15 12:22:21;;;;;;;0.50;0.40;;;29.70;99.90;;;;;;20908624;28;20225;-68
2021/07/15 12:32:24;;;;;;;0.25;0.22;;;29.90;99.90;;;;;;20908990;28;20221;-70
2021/07/15 12:42:29;;;;;;;1.52;0.55;;;30.10;99.90;;;;;;20907478;28;20280;-68
2021/07/15 12:52:33;;;;;;;2.95;1.35;;;30.90;99.90;;;;;;20907075;28;20312;-72
2021/07/15 13:02:38;;;;;;;0.68;0.50;;;30.50;99.90;;;;;;20905834;28;20645;-69
2021/07/15 13:23:07;;;;;;;0.60;0.40;;;31.60;99.90;;;;;;20900578;28;20197;-68
2021/07/15 13:33:13;;;;;;;4.75;0.52;;;32.00;99.90;;;;;;20900199;28;20287;-68
2021/07/15 13:43:20;;;;;;;0.57;0.55;;;31.80;99.90;;;;;;20898299;28;20193;-68
2021/07/15 13:53:27;;;;;;;0.80;0.60;;;32.70;99.90;;;;;;20898294;28;20229;-70
2021/07/15 14:03:32;;;;;;;0.95;0.15;;;32.50;99.90;;;;;;20896784;28;20235;-69
2021/07/15 14:13:38;;;;;;;1.95;0.50;;;33.10;99.90;;;;;;20895210;28;20596;-68
2021/07/15 14:23:45;;;;;;;1.02;0.50;;;33.90;99.90;;;;;;20893040;28;20266;-68
2021/07/15 14:33:49;;;;;;;1.58;0.43;;;33.00;99.90;;;;;;20894666;28;20225;-68
2021/07/15 14:43:54;;;;;;;0.30;0.22;;;33.80;99.90;;;;;;20892822;28;20198;-69
2021/07/15 14:53:57;;;;;;;3.30;0.60;;;34.20;99.90;;;;;;20889131;28;20708;-69
2021/07/15 15:04:02;;;;;;;0.95;0.60;;;34.60;99.90;;;;;;20847161;28;1268969;-68
2021/07/15 15:14:06;;;;;;;2.10;0.85;;;34.60;99.90;;;;;;20892562;28;20300;-68
2021/07/15 15:24:11;;;;;;;0.30;0.30;;;34.40;99.90;;;;;;20891625;28;20240;-68
2021/07/15 15:34:15;;;;;;;0.70;0.40;;;34.10;99.90;;;;;;20895777;28;20232;-68
2021/07/15 15:44:19;;;;;;;0.65;0.50;;;33.90;99.90;;;;;;20908045;28;20204;-68
2021/07/15 15:54:23;;;;;;;2.45;0.70;;;33.60;99.90;;;;;;20907467;28;20221;-69
2021/07/15 16:04:29;;;;;;;0.50;0.47;;;33.30;99.90;;;;;;20906548;28;20251;-68
2021/07/15 16:14:32;;;;;;;0.40;0.40;;;33.30;99.90;;;;;;20905757;28;20583;-69
2021/07/15 16:24:37;;;;;;;2.80;0.47;;;32.20;99.90;;;;;;20903692;28;20714;-70
2021/07/15 16:34:41;;;;;;;1.35;0.57;;;30.60;99.90;;;;;;20904638;28;20320;-69
2021/07/15 16:44:46;;;;;;;0.40;0.40;;;30.20;99.90;;;;;;20902567;28;20662;-67
2021/07/15 16:54:50;;;;;;;2.75;0.80;;;31.50;99.90;;;;;;20902841;28;20251;-68
2021/07/15 17:04:55;;;;;;;1.13;1.05;;;30.60;99.90;;;;;;20903883;28;20556;-68
2021/07/15 17:15:03;;;;;;;1.10;1.00;;;31.60;99.90;;;;;;20909477;28;20492;-67
2021/07/15 17:25:09;;;;;;;0.70;0.57;;;31.70;99.90;;;;;;20903952;28;20565;-68
2021/07/15 17:35:13;;;;;;;6.75;5.10;;;31.70;99.90;;;;;;20899522;28;20233;-67
2021/07/15 17:45:18;;;;;;;2.72;0.45;;;31.00;99.90;;;;;;20899575;28;20305;-68
2021/07/15 17:55:22;;;;;;;1.88;0.98;;;28.70;99.90;;;;;;20898330;28;20329;-64
2021/07/15 18:05:28;;;;;;;1.08;0.70;;;28.20;99.90;;;;;;20899145;28;20515;-67
2021/07/15 18:15:34;;;;;;;1.63;0.75;;;27.10;99.90;;;;;;20896103;28;20304;-66
2021/07/15 18:25:39;;;;;;;1.35;0.93;;;26.50;99.90;;;;;;20896735;28;20631;-66
2021/07/15 18:35:43;;;;;;;0.60;0.50;;;26.10;99.90;;;;;;20892991;28;20217;-67
2021/07/15 18:45:48;;;;;;;0.60;0.30;;;25.90;99.90;;;;;;20895991;28;20289;-68
2021/07/15 18:55:52;;;;;;;2.72;0.75;;;26.60;99.90;;;;;;20905163;28;20307;-68
2021/07/15 19:05:57;;;;;;;3.10;0.73;;;26.00;99.90;;;;;;20895445;28;20243;-66
2021/07/15 19:16:01;;;;;;;1.08;0.98;;;25.50;99.90;;;;;;20909598;28;20221;-67
2021/07/15 19:26:06;;;;;;;2.90;0.38;;;24.80;99.90;;;;;;20911676;28;20215;-66
2021/07/15 19:36:10;;;;;;;1.55;0.40;;;24.70;99.90;;;;;;20908828;28;20253;-66
2021/07/15 19:46:15;;;;;;;1.48;0.45;;;24.50;99.90;;;;;;20908563;28;20202;-65
2021/07/15 19:56:19;;;;;;;1.10;1.00;;;24.40;99.90;;;;;;20909158;28;20718;-66
2021/07/15 20:06:24;;;;;;;0.95;0.70;;;24.60;99.90;;;;;;20874638;28;20230;-67
2021/07/15 20:16:27;;;;;;;4.65;0.80;;;24.40;99.90;;;;;;20854899;28;20742;-65
2021/07/15 20:26:33;;;;;;;0.28;0.28;;;24.40;99.90;;;;;;20893625;28;20198;-66
2021/07/15 20:36:36;;;;;;;1.58;0.82;;;24.40;99.90;;;;;;20896673;28;20249;-68
2021/07/15 20:46:41;;;;;;;4.95;0.85;;;24.30;99.90;;;;;;20905925;28;20677;-66
2021/07/15 20:56:45;;;;;;;1.23;0.77;;;24.30;99.90;;;;;;20904752;28;20221;-66
2021/07/15 21:06:50;;;;;;;1.50;0.47;;;24.10;99.90;;;;;;20904557;28;20231;-67
2021/07/15 21:16:57;;;;;;;0.60;0.50;;;23.80;99.90;;;;;;20903934;28;20229;-67
2021/07/15 21:27:03;;;;;;;0.20;0.20;;;24.10;99.90;;;;;;20904019;28;20232;-66
2021/07/15 21:37:06;;;;;;;0.73;0.70;;;24.10;99.90;;;;;;20900384;28;20225;-69
2021/07/15 21:47:11;;;;;;;1.27;0.77;;;24.00;99.90;;;;;;20900811;28;20204;-67
2021/07/15 21:57:15;;;;;;;5.00;0.83;;;23.90;99.90;;;;;;20900757;28;20308;-65
2021/07/15 22:07:20;;;;;;;0.20;0.20;;;23.80;99.90;;;;;;20900624;28;20225;-66
2021/07/15 22:17:23;;;;;;;0.47;0.47;;;23.70;99.90;;;;;;20898728;28;20232;-66
2021/07/15 22:27:28;;;;;;;0.20;0.10;;;23.50;99.90;;;;;;20898791;28;20284;-67
2021/07/15 22:37:32;;;;;;;0.33;0.33;;;23.40;99.90;;;;;;20897158;28;20240;-67
2021/07/15 22:47:37;;;;;;;4.03;0.37;;;23.40;99.90;;;;;;20897684;28;20709;-67
2021/07/15 22:57:42;;;;;;;0.22;0.20;;;23.70;99.90;;;;;;20897366;28;20697;-67
2021/07/15 23:07:49;;;;;;;1.97;0.30;;;23.50;99.90;;;;;;20896448;28;20251;-66
2021/07/15 23:17:53;;;;;;;7.57;0.70;;;23.40;99.90;;;;;;20899423;28;20642;-66
2021/07/15 23:27:59;;;;;;;1.23;0.67;;;23.20;99.90;;;;;;20902394;28;20280;-67
2021/07/15 23:38:03;;;;;;;1.27;0.60;;;23.10;99.90;;;;;;20895283;28;20225;-67
2021/07/15 23:48:08;;;;;;;0.93;0.20;;;23.20;99.90;;;;;;20895136;28;20204;-67
2021/07/15 23:58:12;;;;;;;0.37;0.37;;;23.10;99.90;;;;;;20902609;28;20244;-66
